Share

Odessa, Ukraine

Odesa (UKOO) Elev 138 ft | 46.43 °N, 30.77 °E | Change Station

Current weather conditions updated 5 minutes ago

Clear
Clear
55 °F
Feels Like 55 °F
N
11
Wind Variable Wind from ENE
Sunrise 6:05 AM
Sunset 7:48 PM
Moon Waning Gibbous

Today is forecast to be Much Cooler than yesterday. Showers possible tonight.

Pressure 29.86 in
Visibility -9999.0 miles
Clouds
Dew Point 43 °F
Humidity 63%
Rainfall 0.00 in
Snow Depth Not available.
UV Not available.
Pollen Not available.
Air Quality Not available.
Flu Activity Not available.
METAR UKOO 180300Z 07005MPS 030V110 CAVOK 13/06 Q1011 16090060 NOSIG

More Conditions Fewer Conditions

Pressure 29.86 in
Visibility -9999.0 miles
Clouds
Dew Point 43 °F
Humidity 63%
Rainfall 0.00 in
Snow Depth Not available.
UV Not available.
Pollen Not available.
Air Quality Not available.
Flu Activity Not available.
METAR UKOO 180300Z 07005MPS 030V110 CAVOK 13/06 Q1011 16090060 NOSIG

More Conditions Fewer Conditions

10-Day Forecast

Almanac

Astronomy

Apr. 18, 2014 Rise Set
Actual Time 6:05 AM EEST 7:48 PM EEST
Civil Twilight 5:33 AM EEST 8:20 PM EEST
Nautical Twilight 4:54 AM EEST 8:59 PM EEST
Astronomical Twilight 4:12 AM EEST 9:41 PM EEST
Moon 11:22 PM EEST 8:02 AM EEST
Length of Visible Light 14h 46m
Length of Day
13h 43m
Tomorrow will be 3m 7s longer.
Waning Gibbous, 91% of the Moon is Illuminated
Apr 17
Waning Gibbous
Apr 22
Last Quarter
Apr 29
New
May 6
First Quarter
May 14
Full

Yesterday's Extremes

Country Highs Country Lows

Community

  • SUNRISE THROUGH THE TREES.
    SUNRISE THROUGH THE TREES.
  • Dog Wood Blossoms
    Dog Wood Blossoms
  • Morning Light
    Morning Light
  • New Day
    New Day
  • Lake Michigan Sunrise
    Lake Michigan Sunrise

WunderPhotos

Upload Photos

1,702,234 photos uploaded!

WunderBlogs® & News

Nearby

Snow Depth

Not available.

Coastal Water Temperatures

Place Temperature
No Stations Reporting

Earthquake Activity

City Distance Mag. Time & Date
No recent earthquake activity has been reported nearby.
Minimum magnitude displayed is 2.5.

Nearby Weather Stations

Station Location Temp. Dew Point Humidity Wind Precip. Elev Updated Type
Odessa centrum, Одесса 54.3 °F 44 °F 67% SE  at  4.2 mph 0.00 in / hr 174 ft 6:05 AM EEST Normal

Show More Stations Show Fewer Stations

What do you think?

We're not finished. Please let us know what you like, what you don't like, and what you are still missing.